Clare Christine — V2DT7 — position and weather

sailwx.info

Track history (hours):
 
Tides and Currents Weather Stations Pressure Air Temp Water Temp Dewpoint Dewpoint Depression Visibility Wind Speed Wind Dir Waves Ship Positions

Clare Christine

Last reported at 2014-Oct-31 14:06 UTC. Time now 2014-Oct-31 16:30 UTC.
Position N 50°00' W 001°39'.

Length 89 m; draft 5.2 m.

Type: Cargo ship. MMSI: 305379000.

Date/timePositionNaut miles runAvg speedWind from/ knotsBaromVisibWave heightAir tempDewpointWater temp
2014-Oct-31 14:06N 50°00' W 001°39'812.5
2014-Oct-31 13:28N 49°59' W 001°51'1712.4
2014-Oct-31 12:05N 49°54' W 002°17'611.5
2014-Oct-31 11:33N 49°53' W 002°26'1410.6
2014-Oct-31 10:14N 49°49' W 002°47'710.2
2014-Oct-31 09:33N 49°47' W 002°57'10 9.9
2014-Oct-31 08:34N 49°42' W 003°10'10 9.6
2014-Oct-31 07:33N 49°37' W 003°23'10 9.7
2014-Oct-31 06:33N 49°32' W 003°36'10 9.4
2014-Oct-31 05:29N 49°27' W 003°49'9 9.3
2014-Oct-31 04:33N 49°23' W 004°01'  
Track history (hours):
 
Tides and Currents Weather Stations Pressure Air Temp Water Temp Dewpoint Dewpoint Depression Visibility Wind Speed Wind Dir Waves Ship Positions

Clare Christine

Last reported at 2014-Oct-31 14:06 UTC. Time now 2014-Oct-31 16:30 UTC.
Position N 50°00' W 001°39'.

Length 89 m; draft 5.2 m.

Type: Cargo ship. MMSI: 305379000.

Date/timePositionNaut miles runAvg speedWind from/ knotsBaromVisibWave heightAir tempDewpointWater temp
2014-Oct-31 14:06N 50°00' W 001°39'812.5
2014-Oct-31 13:28N 49°59' W 001°51'1712.4
2014-Oct-31 12:05N 49°54' W 002°17'611.5
2014-Oct-31 11:33N 49°53' W 002°26'1410.6
2014-Oct-31 10:14N 49°49' W 002°47'710.2
2014-Oct-31 09:33N 49°47' W 002°57'10 9.9
2014-Oct-31 08:34N 49°42' W 003°10'10 9.6
2014-Oct-31 07:33N 49°37' W 003°23'10 9.7
2014-Oct-31 06:33N 49°32' W 003°36'10 9.4
2014-Oct-31 05:29N 49°27' W 003°49'9 9.3
2014-Oct-31 04:33N 49°23' W 004°01'  

Dump ship's entire track history